地図

経路データ

SID SEASON NUMBER BASIN SUBBASIN NAME ISO_TIME NATURE LAT LON WMO_WIND WMO_PRES WMO_AGENCY TRACK_TYPE DIST2LAND LANDFALL IFLAG USA_AGENCY USA_ATCF_ID USA_LAT USA_LON USA_RECORD USA_STATUS USA_WIND USA_PRES USA_SSHS USA_R34_NE USA_R34_SE USA_R34_SW USA_R34_NW USA_R50_NE USA_R50_SE USA_R50_SW USA_R50_NW USA_R64_NE USA_R64_SE USA_R64_SW USA_R64_NW USA_POCI USA_ROCI USA_RMW USA_EYE TOKYO_LAT TOKYO_LON TOKYO_GRADE TOKYO_WIND TOKYO_PRES TOKYO_R50_DIR TOKYO_R50_LONG TOKYO_R50_SHORT TOKYO_R30_DIR TOKYO_R30_LONG TOKYO_R30_SHORT TOKYO_LAND CMA_LAT CMA_LON CMA_CAT CMA_WIND CMA_PRES HKO_LAT HKO_LON HKO_CAT HKO_WIND HKO_PRES NEWDELHI_LAT NEWDELHI_LON NEWDELHI_GRADE NEWDELHI_WIND NEWDELHI_PRES NEWDELHI_CI NEWDELHI_DP NEWDELHI_POCI REUNION_LAT REUNION_LON REUNION_TYPE REUNION_WIND REUNION_PRES REUNION_TNUM REUNION_CI REUNION_RMW REUNION_R34_NE REUNION_R34_SE REUNION_R34_SW REUNION_R34_NW REUNION_R50_NE REUNION_R50_SE REUNION_R50_SW REUNION_R50_NW REUNION_R64_NE REUNION_R64_SE REUNION_R64_SW REUNION_R64_NW BOM_LAT BOM_LON BOM_TYPE BOM_WIND BOM_PRES BOM_TNUM BOM_CI BOM_RMW BOM_R34_NE BOM_R34_SE BOM_R34_SW BOM_R34_NW BOM_R50_NE BOM_R50_SE BOM_R50_SW BOM_R50_NW BOM_R64_NE BOM_R64_SE BOM_R64_SW BOM_R64_NW BOM_ROCI BOM_POCI BOM_EYE BOM_POS_METHOD BOM_PRES_METHOD NADI_LAT NADI_LON NADI_CAT NADI_WIND NADI_PRES WELLINGTON_LAT WELLINGTON_LON WELLINGTON_WIND WELLINGTON_PRES DS824_LAT DS824_LON DS824_STAGE DS824_WIND DS824_PRES TD9636_LAT TD9636_LON TD9636_STAGE TD9636_WIND TD9636_PRES TD9635_LAT TD9635_LON TD9635_WIND TD9635_PRES TD9635_ROCI NEUMANN_LAT NEUMANN_LON NEUMANN_CLASS NEUMANN_WIND NEUMANN_PRES MLC_LAT MLC_LON MLC_CLASS MLC_WIND MLC_PRES USA_GUST BOM_GUST BOM_GUST_PER REUNION_GUST REUNION_GUST_PER USA_SEAHGT USA_SEARAD_NE USA_SEARAD_SE USA_SEARAD_SW USA_SEARAD_NW STORM_SPEED STORM_DIR
2000217N11342 2000 56 NA NA ALBERTO 2000-08-03 18:00:00 TS 10.8000 -18.0000 25 1007 hurdat_atl main 221 221 O_____________ hurdat_atl AL032000 10.8000 -18.0000 TD 25 1007 -1 21 290
2000217N11342 2000 56 NA NA ALBERTO 2000-08-03 21:00:00 TS 11.1654 -19.0222 main 274 274 P_____________ AL032000 11.1654 -19.0222 TD 27 1006 -1 22 289
2000217N11342 2000 56 NA NA ALBERTO 2000-08-04 00:00:00 TS 11.5000 -20.1000 30 1005 hurdat_atl main 373 373 O_____________ hurdat_atl AL032000 11.5000 -20.1000 TD 30 1005 -1 23 286
2000217N11342 2000 56 NA NA ALBERTO 2000-08-04 03:00:00 TS 11.7802 -21.2450 main 483 483 P_____________ AL032000 11.7802 -21.2450 TD 32 1004 -1 22 283
2000217N11342 2000 56 NA NA ALBERTO 2000-08-04 06:00:00 TS 12.0000 -22.3000 35 1004 hurdat_atl main 599 599 O_____________ hurdat_atl AL032000 12.0000 -22.3000 TS 35 1004 0 19 282
2000217N11342 2000 56 NA NA ALBERTO 2000-08-04 09:00:00 TS 12.1569 -23.1103 main 667 667 P_____________ AL032000 12.1569 -23.1103 TS 35 1003 0 15 282
2000217N11342 2000 56 NA NA ALBERTO 2000-08-04 12:00:00 TS 12.3000 -23.8000 35 1003 hurdat_atl main 732 732 O_____________ hurdat_atl AL032000 12.3000 -23.8000 TS 35 1003 0 14 284
2000217N11342 2000 56 NA NA ALBERTO 2000-08-04 15:00:00 TS 12.4847 -24.5001 main 795 795 P_____________ AL032000 12.4847 -24.5001 TS 37 1002 0 14 286
2000217N11342 2000 56 NA NA ALBERTO 2000-08-04 18:00:00 TS 12.7000 -25.2000 40 1002 hurdat_atl main 861 861 O_____________ hurdat_atl AL032000 12.7000 -25.2000 TS 40 1002 0 15 288
2000217N11342 2000 56 NA NA ALBERTO 2000-08-04 21:00:00 TS 12.9423 -25.9426 main 929 929 P_____________ AL032000 12.9423 -25.9426 TS 40 1001 0 15 289
2000217N11342 2000 56 NA NA ALBERTO 2000-08-05 00:00:00 TS 13.2000 -26.7000 40 1001 hurdat_atl main 1007 1007 O_____________ hurdat_atl AL032000 13.2000 -26.7000 TS 40 1001 0 16 289
2000217N11342 2000 56 NA NA ALBERTO 2000-08-05 03:00:00 TS 13.4572 -27.4426 main 1076 1076 P_____________ AL032000 13.4572 -27.4426 TS 42 1000 0 15 289
2000217N11342 2000 56 NA NA ALBERTO 2000-08-05 06:00:00 TS 13.7000 -28.2000 45 1000 hurdat_atl main 1159 1159 O_____________ hurdat_atl AL032000 13.7000 -28.2000 TS 45 1000 0 16 287
2000217N11342 2000 56 NA NA ALBERTO 2000-08-05 09:00:00 TS 13.9073 -28.9927 main 1242 1242 P_____________ AL032000 13.9073 -28.9927 TS 45 999 0 16 284
2000217N11342 2000 56 NA NA ALBERTO 2000-08-05 12:00:00 TS 14.1000 -29.8000 45 999 hurdat_atl main 1326 1326 O_____________ hurdat_atl AL032000 14.1000 -29.8000 TS 45 999 0 16 285
2000217N11342 2000 56 NA NA ALBERTO 2000-08-05 15:00:00 TS 14.3296 -30.5848 main 1411 1411 P_____________ AL032000 14.3296 -30.5848 TS 50 996 0 16 284
2000217N11342 2000 56 NA NA ALBERTO 2000-08-05 18:00:00 TS 14.5000 -31.4000 55 994 hurdat_atl main 1496 1496 O_____________ hurdat_atl AL032000 14.5000 -31.4000 TS 55 994 0 17 277
2000217N11342 2000 56 NA NA ALBERTO 2000-08-05 21:00:00 TS 14.5228 -32.3304 main 1593 1593 P_____________ AL032000 14.5228 -32.3304 TS 60 990 0 17 270
2000217N11342 2000 56 NA NA ALBERTO 2000-08-06 00:00:00 TS 14.5000 -33.2000 65 987 hurdat_atl main 1689 1689 O_____________ hurdat_atl AL032000 14.5000 -33.2000 HU 65 987 1 15 271
2000217N11342 2000 56 NA NA ALBERTO 2000-08-06 03:00:00 TS 14.5420 -33.8599 main 1765 1765 P_____________ AL032000 14.5420 -33.8599 HU 65 986 1 12 275
2000217N11342 2000 56 NA NA ALBERTO 2000-08-06 06:00:00 TS 14.6000 -34.4000 65 985 hurdat_atl main 1818 1818 O_____________ hurdat_atl AL032000 14.6000 -34.4000 HU 65 985 1 10 274
2000217N11342 2000 56 NA NA ALBERTO 2000-08-06 09:00:00 TS 14.6197 -34.9003 main 1872 1872 P_____________ AL032000 14.6197 -34.9003 HU 67 984 1 10 276
2000217N11342 2000 56 NA NA ALBERTO 2000-08-06 12:00:00 TS 14.7000 -35.4000 70 983 hurdat_atl main 1925 1925 O_____________ hurdat_atl AL032000 14.7000 -35.4000 HU 70 983 1 11 286
2000217N11342 2000 56 NA NA ALBERTO 2000-08-06 15:00:00 TS 14.9198 -35.9625 main 1989 1989 P_____________ AL032000 14.9198 -35.9625 HU 72 982 1 13 293
2000217N11342 2000 56 NA NA ALBERTO 2000-08-06 18:00:00 TS 15.2000 -36.6000 75 981 hurdat_atl main 2020 1980 O_____________ hurdat_atl AL032000 15.2000 -36.6000 HU 75 981 1 14 292
2000217N11342 2000 56 NA NA ALBERTO 2000-08-06 21:00:00 TS 15.4650 -37.3274 main 1980 1927 P_____________ AL032000 15.4650 -37.3274 HU 75 980 1 15 289
2000217N11342 2000 56 NA NA ALBERTO 2000-08-07 00:00:00 TS 15.7000 -38.1000 75 979 hurdat_atl main 1927 1885 O_____________ hurdat_atl AL032000 15.7000 -38.1000 HU 75 979 1 15 285
2000217N11342 2000 56 NA NA ALBERTO 2000-08-07 03:00:00 TS 15.8723 -38.8577 main 1877 1831 P_____________ AL032000 15.8723 -38.8577 HU 77 978 1 15 282
2000217N11342 2000 56 NA NA ALBERTO 2000-08-07 06:00:00 TS 16.0000 -39.6000 80 978 hurdat_atl main 1831 1786 O_____________ hurdat_atl AL032000 16.0000 -39.6000 HU 80 978 1 14 279
2000217N11342 2000 56 NA NA ALBERTO 2000-08-07 09:00:00 TS 16.0998 -40.3227 main 1786 1744 P_____________ AL032000 16.0998 -40.3227 HU 80 977 1 14 278
2000217N11342 2000 56 NA NA ALBERTO 2000-08-07 12:00:00 TS 16.2000 -41.0000 80 977 hurdat_atl main 1744 1711 O_____________ hurdat_atl AL032000 16.2000 -41.0000 HU 80 977 1 13 282
2000217N11342 2000 56 NA NA ALBERTO 2000-08-07 15:00:00 TS 16.3496 -41.6000 main 1711 1689 P_____________ AL032000 16.3496 -41.6000 HU 80 977 1 12 285
2000217N11342 2000 56 NA NA ALBERTO 2000-08-07 18:00:00 TS 16.5000 -42.2000 80 978 hurdat_atl main 1689 1655 O_____________ hurdat_atl AL032000 16.5000 -42.2000 HU 80 978 1 13 281
2000217N11342 2000 56 NA NA ALBERTO 2000-08-07 21:00:00 TS 16.6000 -42.8927 main 1655 1619 P_____________ AL032000 16.6000 -42.8927 HU 77 978 1 14 278
2000217N11342 2000 56 NA NA ALBERTO 2000-08-08 00:00:00 TS 16.7000 -43.6000 75 979 hurdat_atl main 1619 1583 O_____________ hurdat_atl AL032000 16.7000 -43.6000 HU 75 979 1 14 279
2000217N11342 2000 56 NA NA ALBERTO 2000-08-08 03:00:00 TS 16.8125 -44.2952 main 1583 1561 P_____________ AL032000 16.8125 -44.2952 HU 72 980 1 13 284
2000217N11342 2000 56 NA NA ALBERTO 2000-08-08 06:00:00 TS 17.0000 -44.9000 70 982 hurdat_atl main 1565 1559 O_____________ hurdat_atl AL032000 17.0000 -44.9000 HU 70 982 1 11 296
2000217N11342 2000 56 NA NA ALBERTO 2000-08-08 09:00:00 TS 17.3047 -45.3377 main 1571 1565 P_____________ AL032000 17.3047 -45.3377 HU 70 983 1 10 312
2000217N11342 2000 56 NA NA ALBERTO 2000-08-08 12:00:00 TS 17.7000 -45.7000 70 985 hurdat_atl main 1588 1588 O_____________ hurdat_atl AL032000 17.7000 -45.7000 HU 70 985 1 11 318
2000217N11342 2000 56 NA NA ALBERTO 2000-08-08 15:00:00 TS 18.1275 -46.1076 main 1607 1607 P_____________ AL032000 18.1275 -46.1076 HU 67 986 1 12 320
2000217N11342 2000 56 NA NA ALBERTO 2000-08-08 18:00:00 TS 18.6000 -46.5000 65 987 hurdat_atl main 1638 1638 O_____________ hurdat_atl AL032000 18.6000 -46.5000 HU 65 987 1 12 325
2000217N11342 2000 56 NA NA ALBERTO 2000-08-08 21:00:00 TS 19.0921 -46.8132 main 1676 1676 P_____________ AL032000 19.0921 -46.8132 HU 62 988 0 12 326
2000217N11342 2000 56 NA NA ALBERTO 2000-08-09 00:00:00 TS 19.6000 -47.2000 60 989 hurdat_atl main 1710 1710 O_____________ hurdat_atl AL032000 19.6000 -47.2000 TS 60 989 0 14 317
2000217N11342 2000 56 NA NA ALBERTO 2000-08-09 03:00:00 TS 20.0776 -47.7979 main 1733 1729 P_____________ AL032000 20.0776 -47.7979 TS 60 990 0 16 309
2000217N11342 2000 56 NA NA ALBERTO 2000-08-09 06:00:00 TS 20.6000 -48.5000 60 992 hurdat_atl main 1736 1722 O_____________ hurdat_atl AL032000 20.6000 -48.5000 TS 60 992 0 17 311
2000217N11342 2000 56 NA NA ALBERTO 2000-08-09 09:00:00 TS 21.2123 -49.1930 main 1722 1683 P_____________ AL032000 21.2123 -49.1930 TS 57 993 0 18 315
2000217N11342 2000 56 NA NA ALBERTO 2000-08-09 12:00:00 TS 21.9000 -49.9000 55 994 hurdat_atl main 1683 1630 O_____________ hurdat_atl AL032000 21.9000 -49.9000 TS 55 994 0 19 317
2000217N11342 2000 56 NA NA ALBERTO 2000-08-09 15:00:00 TS 22.6423 -50.6078 main 1630 1585 P_____________ AL032000 22.6423 -50.6078 TS 57 992 0 20 319
2000217N11342 2000 56 NA NA ALBERTO 2000-08-09 18:00:00 TS 23.4000 -51.3000 60 991 hurdat_atl main 1585 1550 O_____________ hurdat_atl AL032000 23.4000 -51.3000 TS 60 991 0 19 320
2000217N11342 2000 56 NA NA ALBERTO 2000-08-09 21:00:00 TS 24.1145 -51.9509 main 1545 1521 P_____________ AL032000 24.1145 -51.9509 TS 62 989 0 18 320
2000217N11342 2000 56 NA NA ALBERTO 2000-08-10 00:00:00 TS 24.8000 -52.6000 65 988 hurdat_atl main 1521 1489 O_____________ hurdat_atl AL032000 24.8000 -52.6000 HU 65 988 1 18 317
2000217N11342 2000 56 NA NA ALBERTO 2000-08-10 03:00:00 TS 25.4499 -53.3008 main 1489 1470 P_____________ AL032000 25.4499 -53.3008 HU 65 987 1 18 316
2000217N11342 2000 56 NA NA ALBERTO 2000-08-10 06:00:00 TS 26.1000 -54.0000 65 987 hurdat_atl main 1470 1460 O_____________ hurdat_atl AL032000 26.1000 -54.0000 HU 65 987 1 18 318
2000217N11342 2000 56 NA NA ALBERTO 2000-08-10 09:00:00 TS 26.7995 -54.6508 main 1459 1456 P_____________ AL032000 26.7995 -54.6508 HU 65 986 1 18 320
2000217N11342 2000 56 NA NA ALBERTO 2000-08-10 12:00:00 TS 27.5000 -55.3000 65 986 hurdat_atl main 1463 1457 O_____________ hurdat_atl AL032000 27.5000 -55.3000 HU 65 986 1 18 318
2000217N11342 2000 56 NA NA ALBERTO 2000-08-10 15:00:00 TS 28.1726 -56.0225 main 1468 1461 P_____________ AL032000 28.1726 -56.0225 HU 65 985 1 18 316
2000217N11342 2000 56 NA NA ALBERTO 2000-08-10 18:00:00 TS 28.8000 -56.7000 65 984 hurdat_atl main 1472 1472 O_____________ hurdat_atl AL032000 28.8000 -56.7000 HU 65 984 1 16 318
2000217N11342 2000 56 NA NA ALBERTO 2000-08-10 21:00:00 TS 29.3571 -57.2535 main 1489 1489 P_____________ AL032000 29.3571 -57.2535 HU 67 983 1 14 322
2000217N11342 2000 56 NA NA ALBERTO 2000-08-11 00:00:00 TS 29.9000 -57.7000 70 982 hurdat_atl main 1513 1513 O_____________ hurdat_atl AL032000 29.9000 -57.7000 HU 70 982 1 14 327
2000217N11342 2000 56 NA NA ALBERTO 2000-08-11 03:00:00 TS 30.4999 -58.1100 main 1549 1507 P_____________ AL032000 30.4999 -58.1100 HU 72 980 1 13 333
2000217N11342 2000 56 NA NA ALBERTO 2000-08-11 06:00:00 TS 31.1000 -58.4000 75 979 hurdat_atl main 1507 1449 O_____________ hurdat_atl AL032000 31.1000 -58.4000 HU 75 979 1 12 342
2000217N11342 2000 56 NA NA ALBERTO 2000-08-11 09:00:00 TS 31.6573 -58.5604 main 1438 1387 P_____________ AL032000 31.6573 -58.5604 HU 77 977 1 11 351
2000217N11342 2000 56 NA NA ALBERTO 2000-08-11 12:00:00 TS 32.2000 -58.6000 80 976 hurdat_atl main 1387 1336 O_____________ hurdat_atl AL032000 32.2000 -58.6000 HU 80 976 1 11 358
2000217N11342 2000 56 NA NA ALBERTO 2000-08-11 15:00:00 TS 32.7574 -58.6023 main 1325 1279 P_____________ AL032000 32.7574 -58.6023 HU 82 974 1 11 5
2000217N11342 2000 56 NA NA ALBERTO 2000-08-11 18:00:00 TS 33.3000 -58.5000 85 973 hurdat_atl main 1279 1233 O_____________ hurdat_atl AL032000 33.3000 -58.5000 HU 85 973 2 11 12
2000217N11342 2000 56 NA NA ALBERTO 2000-08-11 21:00:00 TS 33.8220 -58.3394 main 1237 1196 P_____________ AL032000 33.8220 -58.3394 HU 87 971 2 11 23
2000217N11342 2000 56 NA NA ALBERTO 2000-08-12 00:00:00 TS 34.3000 -58.0000 90 970 hurdat_atl main 1201 1186 O_____________ hurdat_atl AL032000 34.3000 -58.0000 HU 90 970 2 12 40
2000217N11342 2000 56 NA NA ALBERTO 2000-08-12 03:00:00 TS 34.7153 -57.4174 main 1191 1181 P_____________ AL032000 34.7153 -57.4174 HU 95 965 2 13 53
2000217N11342 2000 56 NA NA ALBERTO 2000-08-12 06:00:00 TS 35.1000 -56.7000 100 960 hurdat_atl main 1183 1158 O_____________ hurdat_atl AL032000 35.1000 -56.7000 HU 100 960 3 14 56
2000217N11342 2000 56 NA NA ALBERTO 2000-08-12 09:00:00 TS 35.4921 -56.0141 main 1161 1140 P_____________ AL032000 35.4921 -56.0141 HU 105 955 3 14 55
2000217N11342 2000 56 NA NA ALBERTO 2000-08-12 12:00:00 TS 35.9000 -55.3000 110 950 hurdat_atl main 1143 1125 O_____________ hurdat_atl AL032000 35.9000 -55.3000 HU 110 950 3 15 53
2000217N11342 2000 56 NA NA ALBERTO 2000-08-12 15:00:00 TS 36.3642 -54.5798 main 1119 1090 P_____________ AL032000 36.3642 -54.5798 HU 110 952 3 15 53
2000217N11342 2000 56 NA NA ALBERTO 2000-08-12 18:00:00 TS 36.8000 -53.8000 110 954 hurdat_atl main 1090 1056 O_____________ hurdat_atl AL032000 36.8000 -53.8000 HU 110 954 3 15 60
2000217N11342 2000 56 NA NA ALBERTO 2000-08-12 21:00:00 TS 37.1225 -52.9139 main 1056 1027 P_____________ AL032000 37.1225 -52.9139 HU 107 956 3 16 67
2000217N11342 2000 56 NA NA ALBERTO 2000-08-13 00:00:00 TS 37.4000 -52.0000 105 958 hurdat_atl main 1028 1002 O_____________ hurdat_atl AL032000 37.4000 -52.0000 HU 105 958 3 15 67
2000217N11342 2000 56 NA NA ALBERTO 2000-08-13 03:00:00 TS 37.7137 -51.1645 main 1003 981 P_____________ AL032000 37.7137 -51.1645 HU 100 962 3 15 66
2000217N11342 2000 56 NA NA ALBERTO 2000-08-13 06:00:00 TS 38.0000 -50.3000 95 966 hurdat_atl main 985 978 O_____________ hurdat_atl AL032000 38.0000 -50.3000 HU 95 966 2 15 71
2000217N11342 2000 56 NA NA ALBERTO 2000-08-13 09:00:00 TS 38.2147 -49.3216 main 986 981 P_____________ AL032000 38.2147 -49.3216 HU 90 969 2 16 76
2000217N11342 2000 56 NA NA ALBERTO 2000-08-13 12:00:00 TS 38.4000 -48.3000 85 973 hurdat_atl main 995 995 O_____________ hurdat_atl AL032000 38.4000 -48.3000 HU 85 973 2 16 76
2000217N11342 2000 56 NA NA ALBERTO 2000-08-13 15:00:00 TS 38.6139 -47.3075 main 1010 1008 P_____________ AL032000 38.6139 -47.3075 HU 80 976 1 16 76
2000217N11342 2000 56 NA NA ALBERTO 2000-08-13 18:00:00 TS 38.8000 -46.3000 75 980 hurdat_atl main 1032 1032 O_____________ hurdat_atl AL032000 38.8000 -46.3000 HU 75 980 1 16 79
2000217N11342 2000 56 NA NA ALBERTO 2000-08-13 21:00:00 TS 38.9219 -45.2495 main 1074 1074 P_____________ AL032000 38.9219 -45.2495 HU 70 983 1 16 83
2000217N11342 2000 56 NA NA ALBERTO 2000-08-14 00:00:00 TS 39.0000 -44.2000 65 987 hurdat_atl main 1116 1116 O_____________ hurdat_atl AL032000 39.0000 -44.2000 HU 65 987 1 16 85
2000217N11342 2000 56 NA NA ALBERTO 2000-08-14 03:00:00 TS 39.0647 -43.1624 main 1162 1162 P_____________ AL032000 39.0647 -43.1624 HU 62 989 0 16 86
2000217N11342 2000 56 NA NA ALBERTO 2000-08-14 06:00:00 TS 39.1000 -42.2000 60 991 hurdat_atl main 1220 1220 O_____________ hurdat_atl AL032000 39.1000 -42.2000 TS 60 991 0 14 88
2000217N11342 2000 56 NA NA ALBERTO 2000-08-14 09:00:00 TS 39.1067 -41.3472 main 1274 1274 P_____________ AL032000 39.1067 -41.3472 TS 57 992 0 12 90
2000217N11342 2000 56 NA NA ALBERTO 2000-08-14 12:00:00 TS 39.1000 -40.6000 55 994 hurdat_atl main 1317 1317 O_____________ hurdat_atl AL032000 39.1000 -40.6000 TS 55 994 0 11 90
2000217N11342 2000 56 NA NA ALBERTO 2000-08-14 15:00:00 TS 39.1148 -39.8903 main 1361 1361 P_____________ AL032000 39.1148 -39.8903 TS 52 995 0 10 90
2000217N11342 2000 56 NA NA ALBERTO 2000-08-14 18:00:00 TS 39.1000 -39.3000 50 997 hurdat_atl main 1399 1399 O_____________ hurdat_atl AL032000 39.1000 -39.3000 TS 50 997 0 8 95
2000217N11342 2000 56 NA NA ALBERTO 2000-08-14 21:00:00 TS 39.0448 -38.8023 main 1438 1438 P_____________ AL032000 39.0448 -38.8023 TS 47 998 0 7 108
2000217N11342 2000 56 NA NA ALBERTO 2000-08-15 00:00:00 TS 38.9000 -38.5000 45 1000 hurdat_atl main 1465 1465 O_____________ hurdat_atl AL032000 38.9000 -38.5000 TS 45 1000 0 5 144
2000217N11342 2000 56 NA NA ALBERTO 2000-08-15 03:00:00 TS 38.6598 -38.4404 main 1486 1486 P_____________ AL032000 38.6598 -38.4404 TS 45 1000 0 6 179
2000217N11342 2000 56 NA NA ALBERTO 2000-08-15 06:00:00 TS 38.3000 -38.5000 45 1001 hurdat_atl main 1510 1510 O_____________ hurdat_atl AL032000 38.3000 -38.5000 TS 45 1001 0 9 0
2000217N11342 2000 56 NA NA ALBERTO 2000-08-15 09:00:00 TS 37.8074 -38.4695 main 1549 1549 P_____________ AL032000 37.8074 -38.4695 TS 45 1001 0 10 179
2000217N11342 2000 56 NA NA ALBERTO 2000-08-15 12:00:00 TS 37.3000 -38.5000 45 1002 hurdat_atl main 1588 1588 O_____________ hurdat_atl AL032000 37.3000 -38.5000 TS 45 1002 0 9 190
2000217N11342 2000 56 NA NA ALBERTO 2000-08-15 15:00:00 TS 36.9125 -38.6627 main 1608 1608 P_____________ AL032000 36.9125 -38.6627 TS 42 1002 0 8 204
2000217N11342 2000 56 NA NA ALBERTO 2000-08-15 18:00:00 TS 36.6000 -38.9000 40 1002 hurdat_atl main 1620 1620 O_____________ hurdat_atl AL032000 36.6000 -38.9000 TS 40 1002 0 7 213
2000217N11342 2000 56 NA NA ALBERTO 2000-08-15 21:00:00 TS 36.3498 -39.1194 main 1633 1627 P_____________ AL032000 36.3498 -39.1194 TS 40 1002 0 6 219
2000217N11342 2000 56 NA NA ALBERTO 2000-08-16 00:00:00 TS 36.1000 -39.4000 40 1003 hurdat_atl main 1633 1627 O_____________ hurdat_atl AL032000 36.1000 -39.4000 TS 40 1003 0 8 222
2000217N11342 2000 56 NA NA ALBERTO 2000-08-16 03:00:00 TS 35.7723 -39.7547 main 1636 1636 P_____________ AL032000 35.7723 -39.7547 TS 40 1003 0 10 223
2000217N11342 2000 56 NA NA ALBERTO 2000-08-16 06:00:00 TS 35.4000 -40.2000 40 1003 hurdat_atl main 1649 1644 O_____________ hurdat_atl AL032000 35.4000 -40.2000 TS 40 1003 0 11 226
2000217N11342 2000 56 NA NA ALBERTO 2000-08-16 09:00:00 TS 35.0000 -40.7276 main 1658 1653 P_____________ AL032000 35.0000 -40.7276 TS 40 1003 0 12 228
2000217N11342 2000 56 NA NA ALBERTO 2000-08-16 12:00:00 TS 34.6000 -41.3000 40 1003 hurdat_atl main 1665 1660 O_____________ hurdat_atl AL032000 34.6000 -41.3000 TS 40 1003 0 12 230
2000217N11342 2000 56 NA NA ALBERTO 2000-08-16 15:00:00 TS 34.2273 -41.8497 main 1678 1673 P_____________ AL032000 34.2273 -41.8497 TS 40 1002 0 11 232
2000217N11342 2000 56 NA NA ALBERTO 2000-08-16 18:00:00 TS 33.9000 -42.4000 40 1002 hurdat_atl main 1679 1674 O_____________ hurdat_atl AL032000 33.9000 -42.4000 TS 40 1002 0 11 237
2000217N11342 2000 56 NA NA ALBERTO 2000-08-16 21:00:00 TS 33.6276 -42.9797 main 1682 1675 P_____________ AL032000 33.6276 -42.9797 TS 42 1001 0 10 241
2000217N11342 2000 56 NA NA ALBERTO 2000-08-17 00:00:00 TS 33.4000 -43.5000 45 1001 hurdat_atl main 1681 1677 O_____________ hurdat_atl AL032000 33.4000 -43.5000 TS 45 1001 0 9 238
2000217N11342 2000 56 NA NA ALBERTO 2000-08-17 03:00:00 TS 33.1621 -43.8798 main 1685 1685 P_____________ AL032000 33.1621 -43.8798 TS 45 1000 0 7 236
2000217N11342 2000 56 NA NA ALBERTO 2000-08-17 06:00:00 TS 33.0000 -44.2000 45 1000 hurdat_atl main 1693 1682 O_____________ hurdat_atl AL032000 33.0000 -44.2000 TS 45 1000 0 6 251
2000217N11342 2000 56 NA NA ALBERTO 2000-08-17 09:00:00 TS 32.9698 -44.5347 main 1682 1668 P_____________ AL032000 32.9698 -44.5347 TS 47 999 0 6 270
2000217N11342 2000 56 NA NA ALBERTO 2000-08-17 12:00:00 TS 33.0000 -44.9000 50 998 hurdat_atl main 1668 1654 O_____________ hurdat_atl AL032000 33.0000 -44.9000 TS 50 998 0 7 271
2000217N11342 2000 56 NA NA ALBERTO 2000-08-17 15:00:00 TS 32.9851 -45.3502 main 1650 1637 P_____________ AL032000 32.9851 -45.3502 TS 50 997 0 8 270
2000217N11342 2000 56 NA NA ALBERTO 2000-08-17 18:00:00 TS 33.0000 -45.8000 50 997 hurdat_atl main 1637 1614 O_____________ hurdat_atl AL032000 33.0000 -45.8000 TS 50 997 0 7 277
2000217N11342 2000 56 NA NA ALBERTO 2000-08-17 21:00:00 TS 33.0698 -46.1725 main 1614 1594 P_____________ AL032000 33.0698 -46.1725 TS 52 996 0 6 289
2000217N11342 2000 56 NA NA ALBERTO 2000-08-18 00:00:00 TS 33.2000 -46.5000 55 995 hurdat_atl main 1594 1564 O_____________ hurdat_atl AL032000 33.2000 -46.5000 TS 55 995 0 6 299
2000217N11342 2000 56 NA NA ALBERTO 2000-08-18 03:00:00 TS 33.3699 -46.8151 main 1564 1535 P_____________ AL032000 33.3699 -46.8151 TS 55 994 0 6 309
2000217N11342 2000 56 NA NA ALBERTO 2000-08-18 06:00:00 TS 33.6000 -47.1000 55 993 hurdat_atl main 1535 1494 O_____________ hurdat_atl AL032000 33.6000 -47.1000 TS 55 993 0 7 319
2000217N11342 2000 56 NA NA ALBERTO 2000-08-18 09:00:00 TS 33.8924 -47.3650 main 1494 1457 P_____________ AL032000 33.8924 -47.3650 TS 57 992 0 7 325
2000217N11342 2000 56 NA NA ALBERTO 2000-08-18 12:00:00 TS 34.2000 -47.6000 60 991 hurdat_atl main 1457 1420 O_____________ hurdat_atl AL032000 34.2000 -47.6000 TS 60 991 0 7 327
2000217N11342 2000 56 NA NA ALBERTO 2000-08-18 15:00:00 TS 34.4800 -47.8300 main 1420 1393 P_____________ AL032000 34.4800 -47.8300 TS 62 989 0 6 327
2000217N11342 2000 56 NA NA ALBERTO 2000-08-18 18:00:00 TS 34.7000 -48.0000 65 987 hurdat_atl main 1393 1380 O_____________ hurdat_atl AL032000 34.7000 -48.0000 HU 65 987 1 4 329
2000217N11342 2000 56 NA NA ALBERTO 2000-08-18 21:00:00 TS 34.8074 -48.0727 main 1380 1369 P_____________ AL032000 34.8074 -48.0727 HU 70 983 1 2 337
2000217N11342 2000 56 NA NA ALBERTO 2000-08-19 00:00:00 TS 34.9000 -48.1000 75 979 hurdat_atl main 1369 1345 O_____________ hurdat_atl AL032000 34.9000 -48.1000 HU 75 979 1 3 346
2000217N11342 2000 56 NA NA ALBERTO 2000-08-19 03:00:00 TS 35.0925 -48.1574 main 1345 1324 P_____________ AL032000 35.0925 -48.1574 HU 77 977 1 4 349
2000217N11342 2000 56 NA NA ALBERTO 2000-08-19 06:00:00 TS 35.3000 -48.2000 80 976 hurdat_atl main 1324 1313 O_____________ hurdat_atl AL032000 35.3000 -48.2000 HU 80 976 1 4 353
2000217N11342 2000 56 NA NA ALBERTO 2000-08-19 09:00:00 TS 35.4500 -48.2076 main 1303 1292 P_____________ AL032000 35.4500 -48.2076 HU 82 974 1 3 0
2000217N11342 2000 56 NA NA ALBERTO 2000-08-19 12:00:00 TS 35.6000 -48.2000 85 973 hurdat_atl main 1292 1271 O_____________ hurdat_atl AL032000 35.6000 -48.2000 HU 85 973 2 3 2
2000217N11342 2000 56 NA NA ALBERTO 2000-08-19 15:00:00 TS 35.7925 -48.2074 main 1271 1249 P_____________ AL032000 35.7925 -48.2074 HU 87 971 2 4 0
2000217N11342 2000 56 NA NA ALBERTO 2000-08-19 18:00:00 TS 36.0000 -48.2000 90 970 hurdat_atl main 1249 1228 O_____________ hurdat_atl AL032000 36.0000 -48.2000 HU 90 970 2 4 5
2000217N11342 2000 56 NA NA ALBERTO 2000-08-19 21:00:00 TS 36.2075 -48.1575 main 1228 1210 P_____________ AL032000 36.2075 -48.1575 HU 90 970 2 4 11
2000217N11342 2000 56 NA NA ALBERTO 2000-08-20 00:00:00 TS 36.4000 -48.1000 90 970 hurdat_atl main 1210 1199 O_____________ hurdat_atl AL032000 36.4000 -48.1000 HU 90 970 2 4 15
2000217N11342 2000 56 NA NA ALBERTO 2000-08-20 03:00:00 TS 36.5500 -48.0499 main 1192 1181 P_____________ AL032000 36.5500 -48.0499 HU 90 970 2 3 14
2000217N11342 2000 56 NA NA ALBERTO 2000-08-20 06:00:00 TS 36.7000 -48.0000 90 971 hurdat_atl main 1181 1160 O_____________ hurdat_atl AL032000 36.7000 -48.0000 HU 90 971 2 4 12
2000217N11342 2000 56 NA NA ALBERTO 2000-08-20 09:00:00 TS 36.9000 -47.9575 main 1160 1143 P_____________ AL032000 36.9000 -47.9575 HU 87 971 2 4 11
2000217N11342 2000 56 NA NA ALBERTO 2000-08-20 12:00:00 TS 37.1000 -47.9000 85 972 hurdat_atl main 1143 1132 O_____________ hurdat_atl AL032000 37.1000 -47.9000 HU 85 972 2 4 19
2000217N11342 2000 56 NA NA ALBERTO 2000-08-20 15:00:00 TS 37.2425 -47.8074 main 1135 1118 P_____________ AL032000 37.2425 -47.8074 HU 85 972 2 3 27
2000217N11342 2000 56 NA NA ALBERTO 2000-08-20 18:00:00 TS 37.4000 -47.7000 85 973 hurdat_atl main 1118 1101 O_____________ hurdat_atl AL032000 37.4000 -47.7000 HU 85 973 2 4 22
2000217N11342 2000 56 NA NA ALBERTO 2000-08-20 21:00:00 TS 37.6425 -47.6000 main 1101 1073 P_____________ AL032000 37.6425 -47.6000 HU 85 973 2 5 18
2000217N11342 2000 56 NA NA ALBERTO 2000-08-21 00:00:00 TS 37.9000 -47.5000 85 974 hurdat_atl main 1073 1057 O_____________ hurdat_atl AL032000 37.9000 -47.5000 HU 85 974 2 5 20
2000217N11342 2000 56 NA NA ALBERTO 2000-08-21 03:00:00 TS 38.0925 -47.3924 main 1057 1040 P_____________ AL032000 38.0925 -47.3924 HU 82 975 1 4 21
2000217N11342 2000 56 NA NA ALBERTO 2000-08-21 06:00:00 TS 38.3000 -47.3000 80 976 hurdat_atl main 1040 1020 O_____________ hurdat_atl AL032000 38.3000 -47.3000 HU 80 976 1 5 12
2000217N11342 2000 56 NA NA ALBERTO 2000-08-21 09:00:00 TS 38.5474 -47.2717 main 1020 984 P_____________ AL032000 38.5474 -47.2717 HU 80 976 1 6 8
2000217N11342 2000 56 NA NA ALBERTO 2000-08-21 12:00:00 TS 38.9000 -47.2000 80 977 hurdat_atl main 984 944 O_____________ hurdat_atl AL032000 38.9000 -47.2000 HU 80 977 1 9 14
2000217N11342 2000 56 NA NA ALBERTO 2000-08-21 15:00:00 TS 39.4049 -47.0023 main 944 901 P_____________ AL032000 39.4049 -47.0023 HU 80 977 1 12 19
2000217N11342 2000 56 NA NA ALBERTO 2000-08-21 18:00:00 TS 40.0000 -46.7000 80 978 hurdat_atl main 901 869 O_____________ hurdat_atl AL032000 40.0000 -46.7000 HU 80 978 1 13 25
2000217N11342 2000 56 NA NA ALBERTO 2000-08-21 21:00:00 TS 40.5778 -46.3004 main 866 835 P_____________ AL032000 40.5778 -46.3004 HU 77 978 1 13 27
2000217N11342 2000 56 NA NA ALBERTO 2000-08-22 00:00:00 TS 41.2000 -45.9000 75 979 hurdat_atl main 835 798 O_____________ hurdat_atl AL032000 41.2000 -45.9000 HU 75 979 1 14 19
2000217N11342 2000 56 NA NA ALBERTO 2000-08-22 03:00:00 TS 41.8841 -45.6917 main 791 758 P_____________ AL032000 41.8841 -45.6917 HU 75 980 1 14 15
2000217N11342 2000 56 NA NA ALBERTO 2000-08-22 06:00:00 TS 42.6000 -45.4000 75 981 hurdat_atl main 758 749 O_____________ hurdat_atl AL032000 42.6000 -45.4000 HU 75 981 1 15 26
2000217N11342 2000 56 NA NA ALBERTO 2000-08-22 09:00:00 TS 43.2473 -44.8019 main 756 749 P_____________ AL032000 43.2473 -44.8019 HU 72 982 1 17 36
2000217N11342 2000 56 NA NA ALBERTO 2000-08-22 12:00:00 TS 44.0000 -44.0000 70 983 hurdat_atl main 765 765 O_____________ hurdat_atl AL032000 44.0000 -44.0000 HU 70 983 1 21 35
2000217N11342 2000 56 NA NA ALBERTO 2000-08-22 15:00:00 TS 44.9888 -43.1369 main 778 776 P_____________ AL032000 44.9888 -43.1369 HU 67 984 1 25 33
2000217N11342 2000 56 NA NA ALBERTO 2000-08-22 18:00:00 TS 46.1000 -42.1000 65 985 hurdat_atl main 810 810 O_____________ hurdat_atl AL032000 46.1000 -42.1000 HU 65 985 1 27 36
2000217N11342 2000 56 NA NA ALBERTO 2000-08-22 21:00:00 TS 47.1776 -40.8564 main 877 877 P_____________ AL032000 47.1776 -40.8564 HU 65 986 1 28 39
2000217N11342 2000 56 NA NA ALBERTO 2000-08-23 00:00:00 TS 48.3000 -39.5000 65 987 hurdat_atl main 975 975 O_____________ hurdat_atl AL032000 48.3000 -39.5000 HU 65 987 1 30 39
2000217N11342 2000 56 NA NA ALBERTO 2000-08-23 03:00:00 TS 49.4789 -38.0622 main 1081 1081 P_____________ AL032000 49.4789 -38.0622 HU 60 990 0 30 36
2000217N11342 2000 56 NA NA ALBERTO 2000-08-23 06:00:00 TS 50.7000 -36.8000 55 994 hurdat_atl main 1112 1017 O_____________ hurdat_atl AL032000 50.7000 -36.8000 TS 55 994 0 27 29
2000217N11342 2000 56 NA NA ALBERTO 2000-08-23 09:00:00 TS 51.8424 -35.9869 main 1017 904 P_____________ AL032000 51.8424 -35.9869 TS 50 995 0 26 19
2000217N11342 2000 56 NA NA ALBERTO 2000-08-23 12:00:00 ET 53.2000 -35.4000 45 997 hurdat_atl main 894 744 O_____________ hurdat_atl AL032000 53.2000 -35.4000 EX 45 997 -4 33 12
2000217N11342 2000 56 NA NA ALBERTO 2000-08-23 15:00:00 ET 55.0955 -34.8564 main 735 628 P_____________ AL032000 55.0955 -34.8564 EX 45 997 -4 39 12
2000217N11342 2000 56 NA NA ALBERTO 2000-08-23 18:00:00 ET 57.0000 -34.0000 45 997 hurdat_atl main 626 613 O_____________ hurdat_atl AL032000 57.0000 -34.0000 EX 45 997 -4 35 22
2000217N11342 2000 56 NA NA ALBERTO 2000-08-23 21:00:00 ET 58.3472 -32.3923 main 636 632 P_____________ AL032000 58.3472 -32.3923 EX 42 996 -4 32 38
2000217N11342 2000 56 NA NA ALBERTO 2000-08-24 00:00:00 ET 59.5000 -30.3000 40 995 hurdat_atl main 619 443 O_____________ hurdat_atl AL032000 59.5000 -30.3000 EX 40 995 -4 33 45
2000217N11342 2000 56 NA NA ALBERTO 2000-08-24 03:00:00 ET 60.6825 -27.8102 main 431 255 P_____________ AL032000 60.6825 -27.8102 EX 37 993 -4 34 43
2000217N11342 2000 56 NA NA ALBERTO 2000-08-24 06:00:00 ET 62.0000 -25.5000 35 992 hurdat_atl main 243 76 O_____________ hurdat_atl AL032000 62.0000 -25.5000 EX 35 992 -4 35 30
2000217N11342 2000 56 NA NA ALBERTO 2000-08-24 09:00:00 ET 63.7413 -24.0891 main 69 0 P_____________ AL032000 63.7413 -24.0891 EX 35 991 -4 37 18
2000217N11342 2000 56 NA NA ALBERTO 2000-08-24 12:00:00 ET 65.5000 -23.0000 35 990 hurdat_atl main 4 0 O_____________ hurdat_atl AL032000 65.5000 -23.0000 EX 35 990 -4 33 16
2000217N11342 2000 56 NA NA ALBERTO 2000-08-24 15:00:00 ET 66.9230 -21.8438 main 59 59 P_____________ AL032000 66.9230 -21.8438 EX 32 991 -4 27 25
2000217N11342 2000 56 NA NA ALBERTO 2000-08-24 18:00:00 ET 68.0000 -20.0000 30 992 hurdat_atl main 202 202 O_____________ hurdat_atl AL032000 68.0000 -20.0000 EX 30 992 -4 26 50
2000217N11342 2000 56 NA NA ALBERTO 2000-08-24 21:00:00 ET 68.5704 -16.5376 main 243 243 P_____________ AL032000 68.5704 -16.5376 EX 30 991 -4 29 70
2000217N11342 2000 56 NA NA ALBERTO 2000-08-25 00:00:00 ET 69.0000 -12.5000 30 990 hurdat_atl main 316 316 O_____________ hurdat_atl AL032000 69.0000 -12.5000 EX 30 990 -4 30 67
2000217N11342 2000 56 NA NA ALBERTO 2000-08-25 03:00:00 ET 69.7476 -8.70117 main 456 456 P_____________ AL032000 69.7476 -8.70117 EX 30 992 -4 31 57
2000217N11342 2000 56 NA NA ALBERTO 2000-08-25 06:00:00 ET 70.7000 -4.90000 30 994 hurdat_atl main 605 O_____________ hurdat_atl AL032000 70.7000 -4.90000 EX 30 994 -4 32 53

IBTrACS Databaseについて

本データベースは、米国NOAAが公開する1842年以降の世界の熱帯低気圧のベストトラックデータアーカイブInternational Best Track Archive for Climate Stewardship (IBTrACS)を、ウェブで閲覧しやすい形式に変換したものです。

最終更新日:2021-12-06